createdAt,value
2022-10-11T00:01:03.671Z,101570.63
2022-10-11T00:03:31.420Z,101571.31
2022-10-11T00:05:59.065Z,101575.31
2022-10-11T00:08:28.093Z,101569.28
2022-10-11T00:10:59.408Z,101575.50
2022-10-11T00:13:27.357Z,101581.78
2022-10-11T00:15:55.716Z,101579.19
2022-10-11T00:18:23.812Z,101582.34
2022-10-11T00:20:51.583Z,101589.09
2022-10-11T00:23:19.241Z,101595.28
2022-10-11T00:25:57.537Z,101591.19
2022-10-11T00:28:25.447Z,101595.06
2022-10-11T00:30:53.213Z,101594.00
2022-10-11T00:33:20.925Z,101594.91
2022-10-11T00:35:49.448Z,101597.88
2022-10-11T00:38:18.870Z,101591.41
2022-10-11T00:40:47.853Z,101593.19
2022-10-11T00:43:16.556Z,101595.88
2022-10-11T00:46:00.289Z,101600.47
2022-10-11T00:48:33.476Z,101596.81
2022-10-11T00:51:04.362Z,101602.94
2022-10-11T00:53:33.572Z,101595.88
2022-10-11T00:56:09.112Z,101610.56
2022-10-11T00:58:37.959Z,101617.38
2022-10-11T01:01:05.971Z,101616.69
2022-10-11T01:03:34.047Z,101613.66
2022-10-11T01:06:03.520Z,101626.53
2022-10-11T01:08:32.736Z,101622.44
2022-10-11T01:11:02.984Z,101631.34
2022-10-11T01:13:38.980Z,101629.34
2022-10-11T01:16:13.144Z,101632.66
2022-10-11T01:18:46.281Z,101632.66
2022-10-11T01:21:18.628Z,101640.16
2022-10-11T01:24:09.266Z,101639.00
2022-10-11T01:27:06.720Z,101643.69
2022-10-11T01:29:45.356Z,101644.50
2022-10-11T01:32:17.132Z,101642.63
2022-10-11T01:34:48.964Z,101645.09
2022-10-11T01:37:20.439Z,101647.22
2022-10-11T01:39:49.724Z,101642.97
2022-10-11T01:42:18.647Z,101652.97
2022-10-11T01:44:48.617Z,101651.78
2022-10-11T01:47:21.623Z,101651.44
2022-10-11T01:49:54.656Z,101659.66
2022-10-11T01:52:22.605Z,101668.53
2022-10-11T01:55:10.014Z,101661.06
2022-10-11T01:57:57.965Z,101658.94
2022-10-11T02:00:27.264Z,101661.88
2022-10-11T02:03:06.685Z,101660.09
2022-10-11T02:05:38.889Z,101663.13
2022-10-11T02:08:09.656Z,101665.38
2022-10-11T02:10:41.249Z,101673.34
2022-10-11T02:13:10.848Z,101664.09
2022-10-11T02:15:41.325Z,101667.13
2022-10-11T02:18:13.668Z,101664.44
2022-10-11T02:20:43.134Z,101663.72
2022-10-11T02:23:13.588Z,101669.47
2022-10-11T02:25:42.204Z,101670.41
2022-10-11T02:28:13.344Z,101679.19
2022-10-11T02:30:42.573Z,101674.06
2022-10-11T02:33:14.741Z,101676.38
2022-10-11T02:35:45.656Z,101678.84
2022-10-11T02:38:18.800Z,101678.84
2022-10-11T02:40:49.268Z,101680.75
2022-10-11T02:43:23.848Z,101674.28
2022-10-11T02:45:53.668Z,101679.22
2022-10-11T02:48:24.983Z,101687.31
2022-10-11T02:50:55.592Z,101688.94
2022-10-11T02:53:23.893Z,101696.69
2022-10-11T02:55:52.844Z,101693.63
2022-10-11T02:58:20.572Z,101697.25
2022-10-11T03:00:48.616Z,101703.91
2022-10-11T03:03:16.709Z,101700.88
2022-10-11T03:05:47.116Z,101708.97
2022-10-11T03:08:16.015Z,101702.50
2022-10-11T03:10:44.490Z,101707.88
2022-10-11T03:13:17.266Z,101704.41
2022-10-11T03:15:49.446Z,101709.06
2022-10-11T03:18:23.823Z,101705.88
2022-10-11T03:20:52.861Z,101715.34
2022-10-11T03:23:20.539Z,101723.78
2022-10-11T03:25:48.173Z,101725.69
2022-10-11T03:28:15.892Z,101726.34
2022-10-11T03:30:43.596Z,101736.47
2022-10-11T03:33:11.241Z,101738.06
2022-10-11T03:35:40.502Z,101733.44
2022-10-11T03:38:13.537Z,101739.69
2022-10-11T03:40:41.294Z,101733.78
2022-10-11T03:43:09.573Z,101735.19
2022-10-11T03:45:38.233Z,101733.66
2022-10-11T03:48:06.209Z,101734.94
2022-10-11T03:50:36.202Z,101741.31
2022-10-11T03:53:04.118Z,101748.53
2022-10-11T03:55:33.171Z,101753.56
2022-10-11T03:58:00.839Z,101750.16
2022-10-11T04:00:29.613Z,101753.56
2022-10-11T04:02:57.377Z,101764.84
2022-10-11T04:05:25.046Z,101768.13
2022-10-11T04:07:52.964Z,101762.72
2022-10-11T04:10:20.647Z,101764.09
2022-10-11T04:12:49.721Z,101772.78
2022-10-11T04:15:17.469Z,101777.34
2022-10-11T04:17:45.108Z,101785.81
2022-10-11T04:20:13.776Z,101783.72
2022-10-11T04:22:41.433Z,101787.63
2022-10-11T04:25:10.165Z,101793.69
2022-10-11T04:27:37.859Z,101799.16
2022-10-11T04:30:08.679Z,101800.63
2022-10-11T04:32:36.349Z,101809.72
2022-10-11T04:35:04.824Z,101807.06
2022-10-11T04:37:33.071Z,101811.53
2022-10-11T04:40:00.749Z,101807.41
2022-10-11T04:42:30.285Z,101815.72
2022-10-11T04:44:57.985Z,101814.88
2022-10-11T04:47:27.288Z,101820.28
2022-10-11T04:49:54.932Z,101824.03
2022-10-11T04:52:25.713Z,101819.69
2022-10-11T04:54:53.741Z,101830.75
2022-10-11T04:57:21.394Z,101829.19
2022-10-11T04:59:50.337Z,101827.44
2022-10-11T05:02:18.441Z,101839.03
2022-10-11T05:04:47.883Z,101834.66
2022-10-11T05:07:15.544Z,101845.22
2022-10-11T05:09:43.363Z,101851.41
2022-10-11T05:12:11.049Z,101851.81
2022-10-11T05:14:38.776Z,101853.66
2022-10-11T05:17:06.656Z,101850.34
2022-10-11T05:19:34.309Z,101847.66
2022-10-11T05:22:05.405Z,101853.53
2022-10-11T05:24:33.112Z,101850.81
2022-10-11T05:27:03.379Z,101856.03
2022-10-11T05:29:31.576Z,101849.06
2022-10-11T05:31:59.305Z,101851.22
2022-10-11T05:34:27.000Z,101868.66
2022-10-11T05:36:56.316Z,101869.50
2022-10-11T05:39:25.336Z,101876.53
2022-10-11T05:41:53.017Z,101877.97
2022-10-11T05:44:20.772Z,101886.25
2022-10-11T05:46:48.460Z,101891.06
2022-10-11T05:49:16.198Z,101888.22
2022-10-11T05:51:43.886Z,101888.22
2022-10-11T05:54:11.535Z,101898.47
2022-10-11T05:56:40.672Z,101912.00
2022-10-11T05:59:08.312Z,101910.22
2022-10-11T06:01:36.015Z,101919.72
2022-10-11T06:04:04.819Z,101910.81
2022-10-11T06:06:32.569Z,101918.59
2022-10-11T06:09:00.213Z,101921.00
2022-10-11T06:11:29.543Z,101915.16
2022-10-11T06:13:58.865Z,101911.38
2022-10-11T06:16:26.569Z,101919.94
2022-10-11T06:18:55.109Z,101924.91
2022-10-11T06:21:22.932Z,101928.91
2022-10-11T06:23:52.307Z,101929.75
2022-10-11T06:26:21.632Z,101936.72
2022-10-11T06:28:49.409Z,101931.56
2022-10-11T06:31:18.583Z,101936.50
2022-10-11T06:33:46.226Z,101935.25
2022-10-11T06:36:16.545Z,101940.84
2022-10-11T06:38:45.482Z,101947.03
2022-10-11T06:41:15.148Z,101954.75
2022-10-11T06:43:42.838Z,101949.72
2022-10-11T06:46:10.513Z,101947.59
2022-10-11T06:48:43.210Z,101950.47
2022-10-11T06:51:10.905Z,101954.59
2022-10-11T06:53:38.696Z,101953.16
2022-10-11T06:56:08.798Z,101949.19
2022-10-11T06:58:37.576Z,101960.75
2022-10-11T07:01:07.161Z,101955.84
2022-10-11T07:03:34.960Z,101956.63
2022-10-11T07:06:09.070Z,101963.13
2022-10-11T07:08:38.151Z,101960.97
2022-10-11T07:11:07.428Z,101962.13
2022-10-11T07:13:35.167Z,101972.91
2022-10-11T07:16:06.599Z,101966.88
2022-10-11T07:18:35.064Z,101979.75
2022-10-11T07:21:13.094Z,101976.22
2022-10-11T07:23:40.864Z,101980.09
2022-10-11T07:26:09.782Z,101979.31
2022-10-11T07:28:38.547Z,101983.88
2022-10-11T07:31:07.458Z,101981.41
2022-10-11T07:33:35.173Z,101981.19
2022-10-11T07:36:05.625Z,101983.22
2022-10-11T07:38:35.215Z,101994.31
2022-10-11T07:41:06.382Z,101995.91
2022-10-11T07:43:34.166Z,101997.13
2022-10-11T07:46:04.417Z,102001.50
2022-10-11T07:48:32.865Z,102002.69
2022-10-11T07:51:05.595Z,102007.97
2022-10-11T07:53:34.612Z,102008.16
2022-10-11T07:56:04.393Z,102002.84
2022-10-11T07:58:36.125Z,102009.81
2022-10-11T08:01:06.495Z,102003.78
2022-10-11T08:03:34.471Z,102011.25
2022-10-11T08:06:03.044Z,102010.44
2022-10-11T08:08:31.022Z,102010.81
2022-10-11T08:11:00.420Z,102014.72
2022-10-11T08:13:30.429Z,102008.44
2022-10-11T08:15:59.087Z,102022.22
2022-10-11T08:18:26.925Z,102017.88
2022-10-11T08:20:54.616Z,102016.19
2022-10-11T08:23:22.273Z,102017.59
2022-10-11T08:25:49.958Z,102016.69
2022-10-11T08:28:19.038Z,102017.81
2022-10-11T08:30:49.142Z,102025.44
2022-10-11T08:33:17.241Z,102017.81
2022-10-11T08:35:45.625Z,102021.63
2022-10-11T08:38:13.672Z,102024.31
2022-10-11T08:40:46.939Z,102017.00
2022-10-11T08:43:23.353Z,102022.63
2022-10-11T08:45:53.268Z,102027.03
2022-10-11T08:48:23.899Z,102031.84
2022-10-11T08:50:53.507Z,102024.88
2022-10-11T08:53:26.675Z,102032.22
2022-10-11T08:55:55.492Z,102030.44
2022-10-11T08:58:39.398Z,102031.63
2022-10-11T09:01:08.694Z,102027.25
2022-10-11T09:03:40.497Z,102037.75
2022-10-11T09:06:16.098Z,102038.97
2022-10-11T09:08:57.967Z,102044.22
2022-10-11T09:11:34.358Z,102042.09
2022-10-11T09:14:20.200Z,102048.63
2022-10-11T09:16:56.605Z,102047.28
2022-10-11T09:19:50.572Z,102044.88
2022-10-11T09:22:26.875Z,102048.72
2022-10-11T09:25:10.744Z,102052.28
2022-10-11T09:28:01.799Z,102054.41
2022-10-11T09:30:30.791Z,102052.31
2022-10-11T09:33:04.945Z,102049.97
2022-10-11T09:35:37.749Z,102054.47
2022-10-11T09:38:10.301Z,102052.94
2022-10-11T09:40:46.695Z,102052.94
2022-10-11T09:43:14.618Z,102060.69
2022-10-11T09:45:49.163Z,102056.41
2022-10-11T09:48:21.262Z,102052.91
2022-10-11T09:50:49.633Z,102056.63
2022-10-11T09:53:17.485Z,102053.22
2022-10-11T09:55:51.278Z,102049.50
2022-10-11T09:58:28.920Z,102058.19
2022-10-11T10:01:07.893Z,102058.75
2022-10-11T10:03:37.744Z,102055.16
2022-10-11T10:06:08.341Z,102050.34
2022-10-11T10:08:36.351Z,102056.25
2022-10-11T10:11:05.706Z,102055.88
2022-10-11T10:13:42.310Z,102058.59
2022-10-11T10:16:20.933Z,102066.28
2022-10-11T10:18:51.523Z,102068.41
2022-10-11T10:21:26.609Z,102065.59
2022-10-11T10:23:55.652Z,102069.13
2022-10-11T10:26:25.140Z,102065.00
2022-10-11T10:28:59.170Z,102064.09
2022-10-11T10:31:49.501Z,102064.13
2022-10-11T10:34:24.844Z,102064.69
2022-10-11T10:36:55.842Z,102075.97
2022-10-11T10:39:26.910Z,102076.72
2022-10-11T10:41:54.629Z,102071.53
2022-10-11T10:44:22.279Z,102075.03
2022-10-11T10:46:58.701Z,102078.94
2022-10-11T10:52:40.257Z,102085.75
2022-10-11T10:55:17.329Z,102079.28
2022-10-11T10:57:51.278Z,102082.94
2022-10-11T11:00:21.469Z,102081.69
2022-10-11T11:02:55.772Z,102084.59
2022-10-11T11:05:28.368Z,102087.59
2022-10-11T11:08:03.083Z,102084.97
2022-10-11T11:10:35.030Z,102084.91
2022-10-11T11:13:15.848Z,102082.50
2022-10-11T11:15:47.962Z,102081.25
2022-10-11T11:18:28.440Z,102081.34
2022-10-11T11:21:08.817Z,102078.06
2022-10-11T11:23:42.218Z,102078.88
2022-10-11T11:26:13.763Z,102079.47
2022-10-11T11:28:48.444Z,102080.19
2022-10-11T11:31:28.921Z,102076.19
2022-10-11T11:34:08.877Z,102087.22
2022-10-11T11:36:40.906Z,102077.81
2022-10-11T11:39:15.230Z,102083.00
2022-10-11T11:41:46.066Z,102073.81
2022-10-11T11:44:17.803Z,102080.88
2022-10-11T11:46:48.496Z,102079.00
2022-10-11T11:49:21.783Z,102080.06
2022-10-11T11:51:49.654Z,102081.81
2022-10-11T11:54:23.441Z,102078.53
2022-10-11T11:56:57.352Z,102063.47
2022-10-11T11:59:31.491Z,102076.88
2022-10-11T12:02:04.754Z,102068.06
2022-10-11T12:04:36.037Z,102077.47
2022-10-11T12:07:21.630Z,102079.13
2022-10-11T12:09:52.483Z,102073.09
2022-10-11T12:12:31.843Z,102081.47
2022-10-11T12:15:06.638Z,102080.06
2022-10-11T12:17:34.388Z,102083.59
2022-10-11T12:20:15.582Z,102082.16
2022-10-11T12:22:58.023Z,102075.84
2022-10-11T12:25:43.467Z,102076.06
2022-10-11T12:29:01.024Z,102080.28
2022-10-11T12:31:32.292Z,102083.56
2022-10-11T12:34:34.410Z,102076.06
2022-10-11T12:37:42.115Z,102074.03
2022-10-11T12:40:34.084Z,102086.06
2022-10-11T12:43:23.863Z,102084.63
2022-10-11T12:45:51.524Z,102071.09
2022-10-11T12:48:35.927Z,102079.59
2022-10-11T12:51:21.346Z,102071.09
2022-10-11T12:54:26.058Z,102072.63
2022-10-11T12:57:12.464Z,102071.84
2022-10-11T12:59:42.619Z,102067.09
2022-10-11T13:02:24.847Z,102058.06
2022-10-11T13:04:52.565Z,102069.81
2022-10-11T13:07:23.347Z,102069.59
2022-10-11T13:09:55.535Z,102060.50
2022-10-11T13:12:24.025Z,102061.13
2022-10-11T13:15:00.358Z,102064.88
2022-10-11T13:17:37.983Z,102068.16
2022-10-11T13:20:10.664Z,102058.66
2022-10-11T13:22:40.284Z,102064.84
2022-10-11T13:25:19.294Z,102065.81
2022-10-11T13:27:47.320Z,102062.06
2022-10-11T13:30:19.779Z,102061.81
2022-10-11T13:32:47.698Z,102066.66
2022-10-11T13:35:22.351Z,102064.66
2022-10-11T13:37:52.737Z,102064.28
2022-10-11T13:40:22.219Z,102069.34
2022-10-11T13:42:51.501Z,102066.41
2022-10-11T13:45:21.254Z,102065.13
2022-10-11T13:47:49.637Z,102069.94
2022-10-11T13:50:30.187Z,102069.47
2022-10-11T13:53:00.196Z,102071.47
2022-10-11T13:55:32.557Z,102074.66
2022-10-11T13:58:03.063Z,102065.81
2022-10-11T14:00:35.439Z,102067.38
2022-10-11T14:03:06.421Z,102077.94
2022-10-11T14:05:37.265Z,102070.75
2022-10-11T14:08:06.949Z,102066.41
2022-10-11T14:10:35.976Z,102076.78
2022-10-11T14:13:18.698Z,102069.47
2022-10-11T14:15:46.364Z,102064.06
2022-10-11T14:18:34.466Z,102062.63
2022-10-11T14:21:30.531Z,102057.34
2022-10-11T14:23:59.991Z,102063.59
2022-10-11T14:26:35.761Z,102066.66
2022-10-11T14:29:07.197Z,102060.66
2022-10-11T14:31:40.563Z,102047.47
2022-10-11T14:34:09.813Z,102048.50
2022-10-11T14:36:37.492Z,102060.50
2022-10-11T14:39:11.822Z,102054.53
2022-10-11T14:41:40.860Z,102059.22
2022-10-11T14:44:08.540Z,102057.13
2022-10-11T14:46:36.319Z,102064.16
2022-10-11T14:49:03.989Z,102056.78
2022-10-11T14:51:33.481Z,102065.59
2022-10-11T14:54:01.176Z,102066.53
2022-10-11T14:56:30.054Z,102055.47
2022-10-11T14:58:59.055Z,102057.81
2022-10-11T15:01:26.904Z,102063.59
2022-10-11T15:03:54.609Z,102064.16
2022-10-11T15:06:24.518Z,102066.31
2022-10-11T15:08:52.663Z,102062.88
2022-10-11T15:11:21.522Z,102064.16
2022-10-11T15:13:49.609Z,102070.03
2022-10-11T15:16:20.594Z,102059.09
2022-10-11T15:18:50.872Z,102057.13
2022-10-11T15:21:20.391Z,102060.06
2022-10-11T15:23:48.571Z,102053.69
2022-10-11T15:26:17.102Z,102057.00
2022-10-11T15:28:45.356Z,102053.00
2022-10-11T15:31:13.152Z,102062.66
2022-10-11T15:33:42.320Z,102061.81
2022-10-11T15:36:13.839Z,102059.94
2022-10-11T15:38:41.865Z,102062.75
2022-10-11T15:41:12.836Z,102071.56
2022-10-11T15:43:40.884Z,102064.28
2022-10-11T15:46:09.303Z,102061.13
2022-10-11T15:48:37.844Z,102061.47
2022-10-11T15:51:06.899Z,102068.63
2022-10-11T15:53:35.178Z,102061.56
2022-10-11T15:56:07.130Z,102065.22
2022-10-11T15:58:36.989Z,102067.56
2022-10-11T16:01:07.106Z,102062.16
2022-10-11T16:03:35.833Z,102067.34
2022-10-11T16:06:05.533Z,102073.25
2022-10-11T16:08:35.069Z,102076.28
2022-10-11T16:11:05.509Z,102073.59
2022-10-11T16:13:33.228Z,102074.41
2022-10-11T16:16:01.659Z,102083.13
2022-10-11T16:18:34.871Z,102077.94
2022-10-11T16:21:07.755Z,102077.72
2022-10-11T16:23:37.547Z,102077.34
2022-10-11T16:26:07.645Z,102078.16
2022-10-11T16:28:35.954Z,102076.75
2022-10-11T16:31:07.889Z,102077.25
2022-10-11T16:33:35.732Z,102085.38
2022-10-11T16:36:20.817Z,102086.16
2022-10-11T16:38:49.844Z,102082.06
2022-10-11T16:41:17.501Z,102091.25
2022-10-11T16:43:45.193Z,102082.28
2022-10-11T16:46:12.879Z,102088.31
2022-10-11T16:48:40.603Z,102080.41
2022-10-11T16:51:08.907Z,102084.75
2022-10-11T16:53:37.297Z,102085.81
2022-10-11T16:56:08.356Z,102087.47
2022-10-11T16:58:37.409Z,102080.53
2022-10-11T17:01:11.190Z,102089.84
2022-10-11T17:03:39.020Z,102089.59
2022-10-11T17:06:07.787Z,102091.47
2022-10-11T17:08:36.179Z,102089.94
2022-10-11T17:11:04.991Z,102089.84
2022-10-11T17:13:33.983Z,102086.50
2022-10-11T17:16:03.741Z,102089.72
2022-10-11T17:18:32.775Z,102080.53
2022-10-11T17:21:04.652Z,102088.06
2022-10-11T17:23:32.360Z,102085.81
2022-10-11T17:26:08.613Z,102084.19
2022-10-11T17:28:40.174Z,102087.81
2022-10-11T17:31:09.323Z,102090.28
2022-10-11T17:33:37.565Z,102090.78
2022-10-11T17:36:15.105Z,102100.66
2022-10-11T17:38:42.756Z,102097.00
2022-10-11T17:41:11.160Z,102094.06
2022-10-11T17:43:40.340Z,102091.94
2022-10-11T17:46:09.050Z,102095.13
2022-10-11T17:48:39.093Z,102102.19
2022-10-11T17:51:09.142Z,102093.34
2022-10-11T17:53:37.917Z,102091.25
2022-10-11T17:56:07.609Z,102087.13
2022-10-11T17:58:35.320Z,102087.47
2022-10-11T18:01:08.107Z,102082.38
2022-10-11T18:03:36.293Z,102088.63
2022-10-11T18:06:05.700Z,102088.16
2022-10-11T18:08:39.969Z,102084.13
2022-10-11T18:11:11.520Z,102087.91
2022-10-11T18:13:42.328Z,102081.94
2022-10-11T18:16:11.850Z,102095.47
2022-10-11T18:18:40.187Z,102074.88
2022-10-11T18:21:07.925Z,102082.50
2022-10-11T18:23:37.209Z,102090.63
2022-10-11T18:26:13.442Z,102085.31
2022-10-11T18:28:41.712Z,102086.84
2022-10-11T18:31:14.475Z,102087.47
2022-10-11T18:33:43.232Z,102082.03
2022-10-11T18:36:13.306Z,102077.91
2022-10-11T18:38:43.774Z,102074.16
2022-10-11T18:41:12.599Z,102072.75
2022-10-11T18:43:40.333Z,102078.03
2022-10-11T18:46:11.985Z,102076.75
2022-10-11T18:48:42.186Z,102074.25
2022-10-11T18:51:11.537Z,102073.81
2022-10-11T18:53:39.250Z,102075.44
2022-10-11T18:56:09.155Z,102079.00
2022-10-11T18:58:38.157Z,102073.19
2022-10-11T19:01:06.755Z,102068.16
2022-10-11T19:03:35.401Z,102065.69
2022-10-11T19:06:08.310Z,102071.00
2022-10-11T19:08:36.388Z,102072.63
2022-10-11T19:11:08.845Z,102077.22
2022-10-11T19:13:37.220Z,102074.16
2022-10-11T19:16:07.761Z,102079.56
2022-10-11T19:18:38.346Z,102074.63
2022-10-11T19:21:12.553Z,102070.50
2022-10-11T19:23:42.052Z,102075.91
2022-10-11T19:26:14.636Z,102080.19
2022-10-11T19:28:43.138Z,102079.56
2022-10-11T19:31:12.936Z,102075.47
2022-10-11T19:33:40.648Z,102076.75
2022-10-11T19:36:09.144Z,102081.09
2022-10-11T19:38:38.175Z,102076.41
2022-10-11T19:41:06.462Z,102075.84
2022-10-11T19:43:34.127Z,102075.00
2022-10-11T19:46:03.469Z,102076.97
2022-10-11T19:48:31.823Z,102074.16
2022-10-11T19:51:04.037Z,102072.53
2022-10-11T19:53:32.264Z,102076.53
2022-10-11T19:56:03.965Z,102079.47
2022-10-11T19:58:31.973Z,102080.28
2022-10-11T20:01:04.001Z,102078.66
2022-10-11T20:03:31.974Z,102083.84
2022-10-11T20:06:00.481Z,102079.34
2022-10-11T20:08:31.724Z,102070.66
2022-10-11T20:11:00.107Z,102070.03
2022-10-11T20:13:34.854Z,102068.41
2022-10-11T20:16:08.092Z,102068.06
2022-10-11T20:18:37.597Z,102072.63
2022-10-11T20:21:07.254Z,102071.22
2022-10-11T20:23:36.161Z,102073.34
2022-10-11T20:26:06.832Z,102075.84
2022-10-11T20:28:36.696Z,102085.38
2022-10-11T20:31:10.942Z,102075.00
2022-10-11T20:33:38.805Z,102070.16
2022-10-11T20:36:08.229Z,102074.88
2022-10-11T20:38:37.681Z,102076.19
2022-10-11T20:41:06.544Z,102071.22
2022-10-11T20:43:36.836Z,102073.59
2022-10-11T20:46:05.762Z,102076.06
2022-10-11T20:48:33.446Z,102078.31
2022-10-11T20:51:03.162Z,102073.13
2022-10-11T20:53:31.091Z,102073.34
2022-10-11T20:55:58.797Z,102070.53
2022-10-11T20:58:26.452Z,102071.94
2022-10-11T21:00:55.472Z,102064.13
2022-10-11T21:03:23.183Z,102064.00
2022-10-11T21:05:58.663Z,102060.50
2022-10-11T21:08:26.532Z,102074.38
2022-10-11T21:10:55.214Z,102069.91
2022-10-11T21:13:23.620Z,102072.63
2022-10-11T21:15:51.292Z,102068.50
2022-10-11T21:18:20.352Z,102074.13
2022-10-11T21:20:48.163Z,102079.41
2022-10-11T21:23:15.841Z,102077.06
2022-10-11T21:25:43.481Z,102085.88
2022-10-11T21:28:11.187Z,102081.31
2022-10-11T21:30:38.890Z,102074.03
2022-10-11T21:33:07.270Z,102086.72
2022-10-11T21:35:39.760Z,102084.47
2022-10-11T21:38:07.401Z,102080.84
2022-10-11T21:40:39.780Z,102078.00
2022-10-11T21:43:09.045Z,102078.81
2022-10-11T21:45:37.804Z,102079.53
2022-10-11T21:48:06.195Z,102078.22
2022-10-11T21:50:33.880Z,102071.06
2022-10-11T21:53:04.410Z,102083.28
2022-10-11T21:55:32.048Z,102080.34
2022-10-11T21:57:59.810Z,102082.34
2022-10-11T22:00:27.485Z,102079.97
2022-10-11T22:02:55.284Z,102078.56
2022-10-11T22:05:22.967Z,102079.41
2022-10-11T22:07:50.657Z,102075.84
2022-10-11T22:10:19.754Z,102085.50
2022-10-11T22:12:47.493Z,102077.22
2022-10-11T22:15:15.395Z,102082.91
2022-10-11T22:17:43.070Z,102083.13
2022-10-11T22:20:11.153Z,102084.78
2022-10-11T22:22:38.828Z,102085.97
2022-10-11T22:25:07.695Z,102088.31
2022-10-11T22:27:36.718Z,102086.41
2022-10-11T22:30:04.905Z,102091.00
2022-10-11T22:32:32.606Z,102088.75
2022-10-11T22:35:00.283Z,102093.09
2022-10-11T22:37:27.957Z,102092.44
2022-10-11T22:39:55.633Z,102087.03
2022-10-11T22:42:27.521Z,102086.91
2022-10-11T22:44:56.890Z,102092.88
2022-10-11T22:47:25.576Z,102092.31
2022-10-11T22:49:53.217Z,102093.81
2022-10-11T22:52:20.928Z,102096.75
2022-10-11T22:54:48.598Z,102099.81
2022-10-11T22:57:16.282Z,102096.16
2022-10-11T22:59:43.935Z,102096.88
2022-10-11T23:02:12.939Z,102094.25
2022-10-11T23:04:40.601Z,102099.22
2022-10-11T23:07:08.235Z,102102.72
2022-10-11T23:09:35.897Z,102097.31
2022-10-11T23:12:03.554Z,102097.72
2022-10-11T23:14:31.483Z,102101.84
2022-10-11T23:16:59.113Z,102105.94
2022-10-11T23:19:28.132Z,102093.84
2022-10-11T23:21:55.773Z,102105.72
2022-10-11T23:24:23.461Z,102107.16
2022-10-11T23:26:51.136Z,102104.06
2022-10-11T23:29:19.056Z,102103.47
2022-10-11T23:31:47.157Z,102100.63
2022-10-11T23:34:15.568Z,102102.50
2022-10-11T23:36:44.589Z,102102.50
2022-10-11T23:39:12.715Z,102104.41
2022-10-11T23:41:40.367Z,102101.94
2022-10-11T23:44:08.207Z,102104.84
2022-10-11T23:46:35.933Z,102102.97
2022-10-11T23:49:04.128Z,102101.31
2022-10-11T23:51:32.174Z,102107.34
2022-10-11T23:54:02.988Z,102103.22
2022-10-11T23:56:30.743Z,102115.09
2022-10-11T23:58:58.474Z,102104.84
